createdAt,value
2022-08-23T00:01:20.281Z,3.58
2022-08-23T00:03:47.953Z,3.85
2022-08-23T00:06:14.365Z,4.00
2022-08-23T00:08:44.807Z,3.67
2022-08-23T00:11:32.587Z,4.45
2022-08-23T00:14:01.594Z,3.65
2022-08-23T00:16:28.696Z,4.18
2022-08-23T00:18:55.164Z,4.00
2022-08-23T00:21:22.255Z,4.20
2022-08-23T00:23:48.833Z,4.03
2022-08-23T00:26:15.259Z,4.30
2022-08-23T00:28:41.688Z,4.20
2022-08-23T00:31:08.092Z,4.40
2022-08-23T00:33:35.178Z,3.97
2022-08-23T00:36:01.592Z,4.30
2022-08-23T00:38:34.442Z,3.53
2022-08-23T00:41:01.732Z,4.15
2022-08-23T00:43:50.819Z,4.03
2022-08-23T00:46:59.310Z,4.45
2022-08-23T00:52:11.061Z,4.20
2022-08-23T00:54:39.520Z,4.22
2022-08-23T00:57:09.345Z,4.00
2022-08-23T00:59:35.766Z,4.30
2022-08-23T01:02:03.341Z,4.30
2022-08-23T01:04:33.094Z,4.30
2022-08-23T01:07:04.484Z,4.53
2022-08-23T01:09:31.073Z,4.18
2022-08-23T01:12:09.090Z,5.22
2022-08-23T01:14:41.604Z,4.70
2022-08-23T01:17:27.207Z,4.82
2022-08-23T01:19:58.040Z,4.68
2022-08-23T01:22:50.656Z,4.47
2022-08-23T01:25:19.503Z,4.90
2022-08-23T01:27:46.197Z,4.60
2022-08-23T01:30:14.580Z,4.80
2022-08-23T01:32:45.037Z,4.78
2022-08-23T01:35:11.492Z,4.55
2022-08-23T01:37:38.299Z,4.50
2022-08-23T01:40:05.980Z,4.45
2022-08-23T01:42:32.426Z,4.03
2022-08-23T01:44:58.813Z,4.40
2022-08-23T01:47:25.313Z,4.60
2022-08-23T01:49:51.784Z,5.18
2022-08-23T01:52:19.457Z,4.70
2022-08-23T01:54:45.946Z,4.85
2022-08-23T01:57:12.384Z,5.00
2022-08-23T01:59:38.935Z,5.15
2022-08-23T02:02:05.729Z,4.80
2022-08-23T02:04:32.186Z,4.90
2022-08-23T02:06:58.594Z,5.47
2022-08-23T02:09:25.538Z,4.93
2022-08-23T02:11:52.418Z,5.05
2022-08-23T02:14:20.159Z,5.03
2022-08-23T02:16:58.067Z,4.60
2022-08-23T02:19:30.504Z,5.07
2022-08-23T02:21:56.955Z,5.20
2022-08-23T02:24:24.763Z,5.22
2022-08-23T02:26:57.689Z,5.70
2022-08-23T02:29:25.762Z,6.05
2022-08-23T02:31:52.628Z,5.25
2022-08-23T02:37:04.449Z,6.28
2022-08-23T02:39:31.097Z,5.93
2022-08-23T02:41:57.595Z,5.75
2022-08-23T02:44:24.541Z,5.90
2022-08-23T02:46:51.139Z,5.90
2022-08-23T02:49:17.790Z,5.57
2022-08-23T02:51:44.766Z,6.03
2022-08-23T02:54:11.543Z,5.95
2022-08-23T02:56:38.287Z,6.70
2022-08-23T02:59:05.911Z,6.72
2022-08-23T03:01:35.603Z,6.40
2022-08-23T03:04:06.917Z,7.90
2022-08-23T03:06:34.232Z,6.00
2022-08-23T03:09:01.087Z,5.93
2022-08-23T03:11:27.912Z,6.50
2022-08-23T03:13:56.409Z,6.70
2022-08-23T03:16:23.602Z,6.35
2022-08-23T03:18:50.702Z,6.43
2022-08-23T03:21:20.804Z,6.82
2022-08-23T03:23:47.949Z,8.70
2022-08-23T03:26:15.755Z,6.10
2022-08-23T03:28:43.575Z,7.20
2022-08-23T03:31:11.335Z,7.68
2022-08-23T03:33:38.259Z,7.40
2022-08-23T03:36:06.533Z,7.03
2022-08-23T03:38:33.976Z,6.53
2022-08-23T03:41:01.196Z,7.07
2022-08-23T03:43:27.752Z,6.97
2022-08-23T03:45:54.198Z,6.50
2022-08-23T03:48:20.637Z,6.72
2022-08-23T03:50:47.085Z,7.15
2022-08-23T03:53:13.626Z,7.55
2022-08-23T03:55:42.938Z,6.90
2022-08-23T03:58:10.244Z,7.18
2022-08-23T04:00:36.808Z,7.50
2022-08-23T04:03:03.530Z,7.00
2022-08-23T04:05:29.926Z,6.72
2022-08-23T04:07:56.351Z,7.10
2022-08-23T04:10:22.776Z,7.05
2022-08-23T04:12:49.749Z,7.18
2022-08-23T04:15:16.187Z,7.25
2022-08-23T04:17:42.808Z,7.13
2022-08-23T04:20:09.656Z,6.70
2022-08-23T04:22:36.063Z,6.72
2022-08-23T04:25:03.353Z,7.43
2022-08-23T04:27:29.797Z,8.00
2022-08-23T04:29:56.260Z,7.05
2022-08-23T04:32:28.078Z,9.32
2022-08-23T04:34:55.084Z,7.47
2022-08-23T04:37:21.649Z,7.47
2022-08-23T04:40:06.536Z,7.60
2022-08-23T04:42:33.090Z,6.88
2022-08-23T04:45:01.248Z,7.47
2022-08-23T04:47:27.720Z,6.97
2022-08-23T04:49:54.146Z,7.25
2022-08-23T04:52:20.655Z,7.07
2022-08-23T04:54:47.300Z,7.13
2022-08-23T04:57:15.343Z,7.68
2022-08-23T04:59:42.379Z,7.68
2022-08-23T05:02:08.805Z,7.63
2022-08-23T05:04:35.215Z,7.28
2022-08-23T05:07:01.606Z,7.32
2022-08-23T05:09:28.065Z,7.38
2022-08-23T05:11:54.518Z,7.13
2022-08-23T05:14:20.997Z,7.70
2022-08-23T05:16:47.444Z,7.85
2022-08-23T05:19:13.907Z,8.32
2022-08-23T05:21:40.304Z,7.47
2022-08-23T05:24:06.734Z,7.22
2022-08-23T05:26:33.244Z,7.65
2022-08-23T05:28:59.670Z,7.50
2022-08-23T05:31:27.473Z,7.50
2022-08-23T05:33:53.992Z,7.72
2022-08-23T05:36:21.438Z,7.68
2022-08-23T05:38:48.254Z,7.65
2022-08-23T05:41:15.727Z,8.70
2022-08-23T05:43:42.618Z,8.10
2022-08-23T05:46:14.883Z,7.93
2022-08-23T05:48:47.951Z,8.35
2022-08-23T05:51:21.295Z,8.93
2022-08-23T05:53:49.924Z,8.45
2022-08-23T05:56:24.348Z,9.27
2022-08-23T05:58:54.533Z,9.50
2022-08-23T06:01:23.403Z,8.15
2022-08-23T06:03:50.422Z,8.70
2022-08-23T06:06:18.340Z,9.18
2022-08-23T06:08:48.543Z,9.68
2022-08-23T06:11:18.006Z,10.50
2022-08-23T06:13:46.624Z,9.43
2022-08-23T06:16:15.587Z,9.00
2022-08-23T06:18:42.505Z,9.13
2022-08-23T06:21:13.615Z,7.57
2022-08-23T06:23:41.306Z,9.73
2022-08-23T06:26:18.652Z,9.30
2022-08-23T06:28:50.873Z,8.82
2022-08-23T06:31:38.888Z,9.00
2022-08-23T06:34:05.462Z,9.02
2022-08-23T06:36:31.896Z,9.10
2022-08-23T06:38:58.303Z,8.85
2022-08-23T06:41:24.718Z,9.55
2022-08-23T06:43:51.705Z,9.50
2022-08-23T06:46:20.730Z,9.15
2022-08-23T06:48:50.891Z,11.25
2022-08-23T06:51:26.830Z,9.45
2022-08-23T06:53:55.079Z,9.02
2022-08-23T06:56:22.840Z,8.77
2022-08-23T06:58:49.255Z,8.38
2022-08-23T07:01:46.073Z,8.05
2022-08-23T07:04:16.031Z,7.80
2022-08-23T07:06:42.741Z,7.70
2022-08-23T07:09:09.161Z,8.15
2022-08-23T07:11:36.134Z,6.20
2022-08-23T07:14:05.103Z,6.22
2022-08-23T07:16:33.218Z,4.47
2022-08-23T07:18:59.683Z,5.80
2022-08-23T07:21:26.106Z,5.75
2022-08-23T07:23:53.319Z,4.63
2022-08-23T07:26:21.419Z,4.25
2022-08-23T07:28:47.816Z,4.35
2022-08-23T07:31:19.148Z,4.57
2022-08-23T07:33:46.285Z,4.43
2022-08-23T07:36:16.424Z,3.90
2022-08-23T07:38:43.994Z,3.80
2022-08-23T07:41:10.729Z,4.18
2022-08-23T07:43:38.301Z,3.58
2022-08-23T07:46:05.565Z,3.63
2022-08-23T07:48:52.977Z,4.68
2022-08-23T07:51:19.970Z,3.85
2022-08-23T07:53:47.503Z,3.83
2022-08-23T07:56:15.632Z,4.25
2022-08-23T07:58:42.063Z,4.70
2022-08-23T08:01:17.139Z,4.72
2022-08-23T08:03:45.387Z,5.28
2022-08-23T08:06:14.647Z,5.43
2022-08-23T08:08:41.901Z,5.57
2022-08-23T08:11:12.765Z,6.28
2022-08-23T08:13:43.374Z,4.75
2022-08-23T08:16:10.974Z,4.40
2022-08-23T08:18:37.753Z,4.38
2022-08-23T08:21:04.702Z,6.03
2022-08-23T08:23:31.191Z,4.75
2022-08-23T08:26:02.261Z,5.10
2022-08-23T08:28:28.673Z,4.43
2022-08-23T08:30:55.103Z,3.22
2022-08-23T08:33:21.482Z,3.25
2022-08-23T08:35:53.907Z,2.80
2022-08-23T08:38:24.822Z,2.80
2022-08-23T08:41:17.811Z,3.45
2022-08-23T08:43:59.171Z,2.85
2022-08-23T08:46:45.340Z,3.42
2022-08-23T08:49:37.122Z,3.08
2022-08-23T08:52:17.529Z,3.30
2022-08-23T08:54:48.268Z,3.30
2022-08-23T08:57:18.498Z,3.00
2022-08-23T09:00:02.635Z,3.20
2022-08-23T09:02:33.513Z,3.08
2022-08-23T09:05:02.715Z,3.70
2022-08-23T09:08:09.640Z,3.00
2022-08-23T09:10:54.160Z,3.28
2022-08-23T09:13:55.517Z,3.10
2022-08-23T09:16:40.623Z,3.20
2022-08-23T09:19:07.169Z,2.90
2022-08-23T09:21:44.255Z,4.00
2022-08-23T09:24:10.660Z,3.03
2022-08-23T09:26:37.232Z,2.80
2022-08-23T09:29:14.768Z,2.88
2022-08-23T09:31:52.889Z,2.63
2022-08-23T09:34:38.670Z,2.83
2022-08-23T09:37:18.972Z,2.85
2022-08-23T09:39:50.033Z,2.75
2022-08-23T09:42:37.453Z,2.88
2022-08-23T09:45:24.009Z,3.00
2022-08-23T09:47:50.980Z,2.97
2022-08-23T09:50:35.116Z,2.92
2022-08-23T09:53:07.793Z,2.72
2022-08-23T09:55:39.500Z,2.65
2022-08-23T10:00:36.579Z,2.63
2022-08-23T10:03:24.861Z,3.70
2022-08-23T10:05:55.054Z,3.20
2022-08-23T10:08:28.952Z,2.58
2022-08-23T10:11:18.499Z,3.15
2022-08-23T10:13:46.795Z,2.80
2022-08-23T10:16:19.380Z,2.60
2022-08-23T10:18:48.816Z,2.67
2022-08-23T10:21:27.096Z,2.50
2022-08-23T10:24:14.259Z,3.08
2022-08-23T10:26:51.736Z,2.72
2022-08-23T10:29:40.883Z,2.70
2022-08-23T10:32:22.524Z,2.60
2022-08-23T10:35:06.246Z,2.78
2022-08-23T10:37:35.835Z,2.80
2022-08-23T10:40:11.161Z,3.30
2022-08-23T10:43:12.179Z,2.78
2022-08-23T10:45:40.455Z,3.08
2022-08-23T10:48:28.056Z,2.70
2022-08-23T10:50:57.253Z,2.58
2022-08-23T10:53:33.075Z,3.15
2022-08-23T10:56:03.112Z,2.45
2022-08-23T10:58:49.651Z,2.80
2022-08-23T11:01:22.052Z,2.42
2022-08-23T11:04:14.649Z,2.78
2022-08-23T11:06:44.657Z,3.10
2022-08-23T11:09:17.152Z,3.13
2022-08-23T11:11:48.794Z,2.80
2022-08-23T11:17:07.741Z,2.78
2022-08-23T11:19:49.796Z,3.00
2022-08-23T11:22:27.932Z,2.47
2022-08-23T11:24:54.344Z,2.60
2022-08-23T11:27:42.189Z,2.70
2022-08-23T11:30:34.340Z,2.72
2022-08-23T11:33:10.291Z,2.92
2022-08-23T11:58:30.473Z,2.70
2022-08-23T12:01:17.112Z,2.22
2022-08-23T12:03:59.803Z,2.40
2022-08-23T12:06:38.980Z,2.65
2022-08-23T12:09:19.874Z,2.30
2022-08-23T12:12:18.608Z,2.10
2022-08-23T12:14:45.650Z,2.35
2022-08-23T12:17:11.988Z,2.00
2022-08-23T12:19:44.269Z,2.17
2022-08-23T12:22:23.092Z,2.22
2022-08-23T12:25:00.516Z,1.95
2022-08-23T12:27:37.085Z,2.10
2022-08-23T12:30:10.767Z,2.58
2022-08-23T12:32:55.165Z,2.10
2022-08-23T12:35:33.654Z,2.50
2022-08-23T12:38:18.920Z,2.00
2022-08-23T12:40:50.638Z,2.45
2022-08-23T12:43:22.938Z,1.88
2022-08-23T12:45:58.381Z,1.92
2022-08-23T12:48:28.341Z,2.25
2022-08-23T12:50:58.256Z,2.30
2022-08-23T12:53:37.269Z,1.77
2022-08-23T12:56:19.330Z,2.05
2022-08-23T12:58:52.184Z,2.03
2022-08-23T13:01:22.448Z,2.15
2022-08-23T13:03:52.263Z,1.95
2022-08-23T13:06:28.500Z,2.17
2022-08-23T13:09:01.657Z,1.95
2022-08-23T13:11:31.669Z,2.10
2022-08-23T13:13:58.106Z,1.88
2022-08-23T13:16:36.643Z,1.95
2022-08-23T13:19:16.508Z,2.05
2022-08-23T13:21:43.135Z,2.08
2022-08-23T13:24:38.645Z,2.15
2022-08-23T13:27:13.234Z,1.92
2022-08-23T13:30:05.159Z,2.28
2022-08-23T13:32:49.148Z,2.20
2022-08-23T13:35:49.716Z,2.10
2022-08-23T13:38:31.613Z,2.30
2022-08-23T13:41:01.368Z,2.20
2022-08-23T13:43:33.890Z,2.25
2022-08-23T13:46:15.069Z,2.25
2022-08-23T13:49:18.106Z,2.15
2022-08-23T13:52:41.292Z,1.90
2022-08-23T13:54:54.645Z,1.95
2022-08-23T13:57:21.827Z,1.77
2022-08-23T13:59:54.608Z,1.95
2022-08-23T14:02:23.013Z,1.88
2022-08-23T14:04:49.510Z,2.30
2022-08-23T14:07:16.083Z,2.20
2022-08-23T14:09:43.112Z,2.08
2022-08-23T14:12:14.567Z,1.88
2022-08-23T14:14:42.600Z,2.50
2022-08-23T14:17:11.365Z,2.42
2022-08-23T14:22:28.565Z,2.05
2022-08-23T14:24:55.025Z,2.00
2022-08-23T14:27:21.491Z,2.13
2022-08-23T14:29:47.904Z,2.20
2022-08-23T14:32:14.302Z,1.55
2022-08-23T14:34:40.693Z,1.75
2022-08-23T14:38:02.778Z,1.98
2022-08-23T14:39:53.876Z,2.13
2022-08-23T14:42:22.128Z,2.00
2022-08-23T14:44:48.601Z,1.90
2022-08-23T14:47:15.017Z,2.38
2022-08-23T14:49:41.438Z,2.40
2022-08-23T14:52:07.933Z,2.22
2022-08-23T14:54:34.737Z,2.05
2022-08-23T14:57:01.250Z,3.70
2022-08-23T14:59:27.784Z,1.83
2022-08-23T15:01:54.877Z,2.20
2022-08-23T15:04:23.141Z,2.25
2022-08-23T15:07:15.996Z,2.25
2022-08-23T15:09:36.808Z,1.70
2022-08-23T15:14:49.855Z,2.13
2022-08-23T15:17:16.375Z,2.25
2022-08-23T15:19:43.607Z,2.30
2022-08-23T15:22:21.682Z,1.92
2022-08-23T15:24:49.101Z,2.05
2022-08-23T15:27:15.492Z,1.67
2022-08-23T15:29:41.928Z,2.33
2022-08-23T15:32:10.166Z,1.88
2022-08-23T15:34:41.081Z,1.80
2022-08-23T15:37:13.377Z,2.30
2022-08-23T15:39:41.750Z,2.00
2022-08-23T15:42:08.287Z,1.50
2022-08-23T15:44:34.708Z,1.85
2022-08-23T15:47:01.990Z,1.70
2022-08-23T15:49:31.739Z,2.30
2022-08-23T15:52:00.525Z,2.15
2022-08-23T15:54:26.958Z,2.05
2022-08-23T15:56:53.402Z,1.95
2022-08-23T15:59:21.551Z,2.10
2022-08-23T16:01:48.587Z,2.13
2022-08-23T16:04:15.009Z,2.08
2022-08-23T16:06:41.598Z,2.00
2022-08-23T16:09:12.607Z,2.40
2022-08-23T16:11:40.678Z,2.00
2022-08-23T16:14:07.069Z,2.00
2022-08-23T16:16:37.489Z,2.42
2022-08-23T16:19:04.115Z,2.40
2022-08-23T16:21:31.039Z,1.63
2022-08-23T16:23:57.936Z,1.73
2022-08-23T16:26:35.237Z,2.10
2022-08-23T16:29:03.777Z,1.95
2022-08-23T16:31:37.626Z,1.90
2022-08-23T16:34:07.816Z,2.15
2022-08-23T16:36:34.365Z,2.55
2022-08-23T16:39:00.741Z,2.05
2022-08-23T16:41:27.123Z,2.00
2022-08-23T16:43:53.511Z,2.47
2022-08-23T16:46:20.450Z,1.88
2022-08-23T16:48:46.907Z,2.70
2022-08-23T16:51:13.367Z,2.13
2022-08-23T16:53:39.959Z,1.88
2022-08-23T16:56:07.188Z,2.38
2022-08-23T16:58:34.884Z,2.17
2022-08-23T17:01:01.363Z,2.08
2022-08-23T17:03:27.841Z,2.28
2022-08-23T17:05:54.249Z,2.20
2022-08-23T17:08:20.655Z,2.15
2022-08-23T17:10:47.705Z,2.20
2022-08-23T17:13:14.611Z,2.13
2022-08-23T17:15:41.544Z,2.53
2022-08-23T17:18:07.977Z,2.35
2022-08-23T17:20:37.019Z,2.60
2022-08-23T17:23:05.582Z,2.40
2022-08-23T17:25:32.486Z,2.20
2022-08-23T17:27:59.169Z,2.33
2022-08-23T17:30:26.437Z,3.00
2022-08-23T17:32:53.077Z,2.55
2022-08-23T17:35:22.821Z,2.40
2022-08-23T17:37:49.244Z,2.22
2022-08-23T17:40:21.112Z,2.80
2022-08-23T17:42:48.068Z,2.15
2022-08-23T17:45:15.390Z,2.30
2022-08-23T17:47:41.895Z,2.28
2022-08-23T17:50:08.799Z,3.10
2022-08-23T17:52:35.328Z,2.50
2022-08-23T17:55:01.723Z,2.33
2022-08-23T17:57:28.700Z,2.17
2022-08-23T17:59:58.121Z,2.60
2022-08-23T18:02:24.577Z,2.45
2022-08-23T18:04:51.085Z,2.70
2022-08-23T18:07:18.756Z,2.42
2022-08-23T18:09:48.658Z,2.53
2022-08-23T18:12:15.760Z,3.25
2022-08-23T18:14:42.204Z,2.90
2022-08-23T18:17:08.634Z,2.78
2022-08-23T18:19:35.196Z,2.35
2022-08-23T18:22:02.573Z,2.90
2022-08-23T18:24:29.257Z,3.25
2022-08-23T18:27:14.072Z,3.28
2022-08-23T18:29:46.146Z,2.90
2022-08-23T18:32:17.868Z,2.17
2022-08-23T18:34:44.273Z,2.55
2022-08-23T18:37:11.188Z,2.63
2022-08-23T18:39:37.594Z,3.05
2022-08-23T18:42:05.463Z,2.88
2022-08-23T18:44:32.315Z,2.63
2022-08-23T18:47:00.446Z,3.15
2022-08-23T18:49:26.861Z,2.97
2022-08-23T18:51:53.465Z,2.80
2022-08-23T18:54:20.087Z,2.55
2022-08-23T18:56:46.489Z,2.83
2022-08-23T18:59:12.895Z,2.75
2022-08-23T19:01:40.782Z,3.33
2022-08-23T19:04:08.767Z,5.45
2022-08-23T19:06:36.028Z,5.97
2022-08-23T19:09:04.017Z,4.65
2022-08-23T19:11:30.956Z,3.00
2022-08-23T19:13:57.844Z,3.55
2022-08-23T19:16:24.583Z,3.30
2022-08-23T19:18:51.201Z,3.72
2022-08-23T19:21:21.345Z,3.20
2022-08-23T19:23:49.662Z,4.57
2022-08-23T19:26:17.466Z,4.93
2022-08-23T19:28:44.246Z,4.18
2022-08-23T19:31:11.451Z,4.05
2022-08-23T19:33:38.076Z,3.10
2022-08-23T19:36:05.345Z,3.20
2022-08-23T19:38:31.915Z,4.45
2022-08-23T19:40:59.825Z,4.18
2022-08-23T19:43:26.693Z,3.78
2022-08-23T19:45:54.317Z,3.15
2022-08-23T19:48:21.294Z,3.40
2022-08-23T19:50:48.001Z,3.38
2022-08-23T19:53:14.479Z,3.70
2022-08-23T19:55:42.201Z,3.67
2022-08-23T19:58:13.311Z,3.95
2022-08-23T20:00:39.826Z,4.80
2022-08-23T20:03:06.361Z,5.50
2022-08-23T20:05:34.191Z,4.13
2022-08-23T20:08:00.872Z,4.03
2022-08-23T20:10:27.621Z,3.70
2022-08-23T20:12:54.094Z,4.53
2022-08-23T20:15:20.539Z,3.83
2022-08-23T20:17:46.986Z,5.18
2022-08-23T20:20:13.845Z,5.22
2022-08-23T20:22:59.587Z,4.40
2022-08-23T20:25:26.180Z,4.20
2022-08-23T20:27:52.648Z,4.47
2022-08-23T20:30:19.153Z,4.53
2022-08-23T20:32:45.688Z,4.05
2022-08-23T20:35:12.481Z,4.47
2022-08-23T20:37:39.523Z,4.30
2022-08-23T20:40:07.717Z,4.13
2022-08-23T20:42:34.327Z,5.95
2022-08-23T20:45:00.725Z,4.82
2022-08-23T20:47:27.185Z,4.93
2022-08-23T20:49:53.746Z,4.78
2022-08-23T20:52:20.187Z,4.47
2022-08-23T20:54:46.575Z,4.97
2022-08-23T20:57:13.025Z,5.47
2022-08-23T20:59:44.218Z,4.75
2022-08-23T21:02:11.350Z,4.78
2022-08-23T21:04:37.863Z,4.60
2022-08-23T21:07:08.119Z,4.78
2022-08-23T21:09:34.572Z,5.47
2022-08-23T21:12:00.967Z,4.20
2022-08-23T21:14:27.407Z,4.97
2022-08-23T21:16:53.836Z,4.68
2022-08-23T21:19:20.291Z,5.53
2022-08-23T21:21:47.152Z,4.63
2022-08-23T21:24:14.058Z,4.57
2022-08-23T21:26:40.612Z,4.70
2022-08-23T21:29:08.660Z,4.95
2022-08-23T21:31:35.192Z,4.82
2022-08-23T21:34:01.808Z,5.05
2022-08-23T21:36:28.705Z,5.45
2022-08-23T21:38:55.141Z,5.10
2022-08-23T21:41:33.592Z,4.18
2022-08-23T21:44:00.825Z,4.80
2022-08-23T21:46:27.296Z,5.03
2022-08-23T21:48:53.783Z,4.55
2022-08-23T21:51:21.893Z,4.53
2022-08-23T21:53:48.491Z,5.68
2022-08-23T21:56:14.911Z,4.90
2022-08-23T21:58:41.545Z,5.68
2022-08-23T22:01:08.978Z,4.40
2022-08-23T22:03:35.934Z,4.68
2022-08-23T22:06:03.311Z,4.88
2022-08-23T22:08:29.776Z,5.45
2022-08-23T22:10:58.146Z,5.35
2022-08-23T22:13:27.297Z,5.70
2022-08-23T22:15:53.775Z,5.40
2022-08-23T22:18:20.752Z,5.38
2022-08-23T22:20:47.185Z,5.85
2022-08-23T22:23:13.617Z,5.18
2022-08-23T22:25:40.156Z,5.25
2022-08-23T22:28:06.568Z,4.88
2022-08-23T22:30:33.025Z,4.97
2022-08-23T22:32:59.505Z,5.03
2022-08-23T22:35:25.990Z,5.28
2022-08-23T22:38:12.079Z,5.95
2022-08-23T22:40:39.368Z,5.25
2022-08-23T22:43:05.830Z,5.47
2022-08-23T22:45:32.247Z,7.30
2022-08-23T22:47:58.768Z,5.45
2022-08-23T22:50:25.315Z,5.35
2022-08-23T22:52:51.732Z,5.07
2022-08-23T22:55:18.174Z,4.82
2022-08-23T22:57:44.609Z,4.88
2022-08-23T23:00:11.831Z,4.45
2022-08-23T23:02:38.811Z,5.00
2022-08-23T23:05:07.094Z,5.43
2022-08-23T23:07:52.164Z,5.55
2022-08-23T23:10:18.630Z,5.80
2022-08-23T23:12:45.428Z,5.63
2022-08-23T23:15:12.142Z,5.82
2022-08-23T23:17:38.618Z,5.53
2022-08-23T23:20:23.774Z,5.10
2022-08-23T23:22:51.714Z,5.80
2022-08-23T23:25:18.480Z,5.80
2022-08-23T23:27:45.084Z,5.55
2022-08-23T23:30:11.886Z,5.57
2022-08-23T23:32:38.292Z,5.75
2022-08-23T23:35:06.481Z,5.95
2022-08-23T23:37:32.924Z,5.95
2022-08-23T23:40:00.197Z,6.25
2022-08-23T23:42:26.782Z,5.78
2022-08-23T23:44:53.207Z,5.88
2022-08-23T23:47:19.616Z,5.63
2022-08-23T23:49:46.864Z,5.85
2022-08-23T23:52:13.273Z,5.85
2022-08-23T23:54:40.866Z,5.63
2022-08-23T23:57:07.495Z,5.25
2022-08-23T23:59:34.480Z,5.50
